Fort Sam Houston, Texas
Current Conditions -  °F | °C
As of 11:51 PM on Friday 19 Dec 2014 (Local Time) from KSAT Reporting Station
Overcast Overcast  
Wind Chill: 51°   Ceiling: 1300
Heat Index: 51°   Visibility: 10mi
Dew Point: 45°   Wind: 8mph
Humidity: 80%   Direction: 30°NNE
Pressure: 30.17"   Gusts: NA
Location:  29.4541°N, 98.4578°W
Report Text: KSAT 200551Z 03007KT 10SM OVC013 11/07 A3017 RMK AO2 SLP205 T01060072 10128 20106 401830106 51004
Loading
Personal Weather Stations






























Interactive Weather Map New forecast layout! Learn more

10-Day Weather Forecast

Advertisements
Track Severe Weather on mobile